createdAt,value
2022-11-03T00:02:12.036Z,100556.88
2022-11-03T00:04:39.806Z,100548.06
2022-11-03T00:07:07.136Z,100546.69
2022-11-03T00:09:34.444Z,100544.63
2022-11-03T00:12:02.100Z,100542.03
2022-11-03T00:14:29.422Z,100550.38
2022-11-03T00:16:56.766Z,100539.34
2022-11-03T00:19:24.342Z,100544.91
2022-11-03T00:21:52.703Z,100546.72
2022-11-03T00:24:20.030Z,100547.03
2022-11-03T00:26:47.650Z,100551.22
2022-11-03T00:29:15.181Z,100542.72
2022-11-03T00:31:44.034Z,100547.03
2022-11-03T00:34:11.655Z,100549.37
2022-11-03T00:36:42.963Z,100557.69
2022-11-03T00:39:10.578Z,100549.78
2022-11-03T00:41:38.301Z,100541.38
2022-11-03T00:44:05.753Z,100537.56
2022-11-03T00:46:35.618Z,100542.53
2022-11-03T00:49:04.275Z,100546.72
2022-11-03T00:51:31.878Z,100547.59
2022-11-03T00:54:00.255Z,100536.34
2022-11-03T00:56:29.285Z,100539.81
2022-11-03T00:58:57.928Z,100551.19
2022-11-03T01:01:32.445Z,100552.78
2022-11-03T01:04:18.839Z,100544.25
2022-11-03T01:06:50.145Z,100547.47
2022-11-03T01:09:17.797Z,100546.84
2022-11-03T01:11:58.736Z,100542.16
2022-11-03T01:14:37.422Z,100540.88
2022-11-03T01:17:06.345Z,100530.88
2022-11-03T01:19:34.011Z,100524.53
2022-11-03T01:22:02.664Z,100523.38
2022-11-03T01:24:32.427Z,100524.66
2022-11-03T01:27:00.029Z,100518.31
2022-11-03T01:29:27.358Z,100520.84
2022-11-03T01:31:54.724Z,100516.62
2022-11-03T01:34:22.804Z,100514.38
2022-11-03T01:36:50.135Z,100514.34
2022-11-03T01:39:18.633Z,100517.38
2022-11-03T01:41:47.643Z,100513.66
2022-11-03T01:44:14.794Z,100512.06
2022-11-03T01:47:14.780Z,100516.69
2022-11-03T01:50:09.783Z,100515.31
2022-11-03T01:52:39.441Z,100507.56
2022-11-03T01:55:13.327Z,100511.75
2022-11-03T01:57:53.068Z,100507.81
2022-11-03T02:00:20.815Z,100507.25
2022-11-03T02:02:48.404Z,100503.97
2022-11-03T02:05:18.529Z,100501.00
2022-11-03T02:07:57.914Z,100497.69
2022-11-03T02:10:25.659Z,100510.66
2022-11-03T02:12:53.023Z,100503.97
2022-11-03T02:15:21.679Z,100508.16
2022-11-03T02:17:50.006Z,100510.97
2022-11-03T02:20:21.631Z,100510.31
2022-11-03T02:23:15.510Z,100518.34
2022-11-03T02:25:46.989Z,100514.72
2022-11-03T02:28:22.433Z,100515.88
2022-11-03T02:30:49.598Z,100523.34
2022-11-03T02:33:31.052Z,100520.53
2022-11-03T02:36:12.398Z,100517.88
2022-11-03T02:38:45.289Z,100521.41
2022-11-03T02:41:12.635Z,100530.03
2022-11-03T02:43:40.290Z,100526.16
2022-11-03T02:46:07.610Z,100524.38
2022-11-03T02:48:34.924Z,100514.22
2022-11-03T02:51:03.404Z,100513.38
2022-11-03T02:53:30.733Z,100517.72
2022-11-03T02:56:02.042Z,100517.03
2022-11-03T02:58:37.356Z,100512.38
2022-11-03T03:01:15.048Z,100495.84
2022-11-03T03:03:48.104Z,100497.53
2022-11-03T03:06:35.130Z,100504.22
2022-11-03T03:09:17.190Z,100502.53
2022-11-03T03:11:44.511Z,100500.69
2022-11-03T03:14:47.828Z,100499.38
2022-11-03T03:17:45.164Z,100496.00
2022-11-03T03:20:19.501Z,100500.03
2022-11-03T03:22:56.765Z,100500.22
2022-11-03T03:25:27.187Z,100511.34
2022-11-03T03:27:58.538Z,100503.38
2022-11-03T03:30:26.144Z,100505.81
2022-11-03T03:32:53.521Z,100502.38
2022-11-03T03:35:25.758Z,100502.38
2022-11-03T03:37:54.547Z,100498.97
2022-11-03T03:40:25.037Z,100495.03
2022-11-03T03:42:52.690Z,100496.53
2022-11-03T03:45:20.388Z,100506.97
2022-11-03T03:47:47.807Z,100504.69
2022-11-03T03:50:15.403Z,100497.69
2022-11-03T03:52:42.731Z,100507.69
2022-11-03T03:55:18.363Z,100496.53
2022-11-03T03:57:46.035Z,100503.78
2022-11-03T04:00:14.109Z,100502.03
2022-11-03T04:02:42.243Z,100495.38
2022-11-03T04:05:09.564Z,100497.03
2022-11-03T04:07:49.143Z,100512.69
2022-11-03T04:10:17.001Z,100515.31
2022-11-03T04:13:03.191Z,100516.22
2022-11-03T04:15:49.231Z,100517.63
2022-11-03T04:18:36.186Z,100521.94
2022-11-03T04:21:22.508Z,100530.09
2022-11-03T04:23:49.827Z,100521.87
2022-11-03T04:26:18.556Z,100509.66
2022-11-03T04:28:45.917Z,100502.16
2022-11-03T04:31:13.787Z,100506.34
2022-11-03T04:33:41.778Z,100498.88
2022-11-03T04:36:23.052Z,100496.62
2022-11-03T04:38:51.238Z,100508.72
2022-11-03T04:41:23.589Z,100519.94
2022-11-03T04:43:52.146Z,100518.25
2022-11-03T04:46:26.260Z,100511.50
2022-11-03T04:48:54.544Z,100512.22
2022-11-03T04:51:25.234Z,100514.84
2022-11-03T04:53:59.003Z,100514.16
2022-11-03T04:56:26.681Z,100499.94
2022-11-03T04:58:54.127Z,100512.44
2022-11-03T05:01:24.332Z,100520.50
2022-11-03T05:03:56.596Z,100523.75
2022-11-03T05:06:28.360Z,100525.16
2022-11-03T05:08:58.637Z,100520.56
2022-11-03T05:11:32.733Z,100518.63
2022-11-03T05:14:01.680Z,100518.81
2022-11-03T05:16:29.093Z,100523.59
2022-11-03T05:18:56.427Z,100526.03
2022-11-03T05:21:25.106Z,100523.59
2022-11-03T05:24:03.145Z,100521.28
2022-11-03T05:26:32.980Z,100518.34
2022-11-03T05:29:06.006Z,100528.28
2022-11-03T05:31:34.657Z,100518.00
2022-11-03T05:34:02.841Z,100519.19
2022-11-03T05:36:30.844Z,100524.19
2022-11-03T05:39:37.996Z,100519.53
2022-11-03T05:42:23.560Z,100522.50
2022-11-03T05:44:51.621Z,100521.53
2022-11-03T05:47:46.700Z,100517.63
2022-11-03T05:50:19.702Z,100522.47
2022-11-03T05:52:48.790Z,100517.78
2022-11-03T05:55:24.191Z,100522.28
2022-11-03T05:57:51.900Z,100525.59
2022-11-03T06:00:41.093Z,100535.09
2022-11-03T06:03:19.901Z,100543.41
2022-11-03T06:05:47.297Z,100548.94
2022-11-03T06:08:18.338Z,100547.81
2022-11-03T06:10:48.976Z,100559.63
2022-11-03T06:13:17.051Z,100557.75
2022-11-03T06:15:45.358Z,100561.84
2022-11-03T06:18:22.318Z,100567.22
2022-11-03T06:20:55.164Z,100568.16
2022-11-03T06:23:22.530Z,100565.91
2022-11-03T06:25:51.794Z,100573.56
2022-11-03T06:28:37.035Z,100578.59
2022-11-03T06:31:05.901Z,100573.03
2022-11-03T06:33:36.375Z,100579.72
2022-11-03T06:36:11.556Z,100574.34
2022-11-03T06:38:39.143Z,100577.69
2022-11-03T06:41:13.885Z,100585.87
2022-11-03T06:43:41.878Z,100580.06
2022-11-03T06:46:23.926Z,100576.41
2022-11-03T06:49:01.496Z,100579.37
2022-11-03T06:51:29.548Z,100582.06
2022-11-03T06:54:00.455Z,100585.87
2022-11-03T06:56:31.962Z,100579.03
2022-11-03T06:58:59.595Z,100578.56
2022-11-03T07:01:33.673Z,100580.75
2022-11-03T07:04:03.024Z,100582.00
2022-11-03T07:06:31.995Z,100581.31
2022-11-03T07:08:59.873Z,100577.28
2022-11-03T07:11:28.804Z,100574.38
2022-11-03T07:13:57.588Z,100584.09
2022-11-03T07:16:40.786Z,100583.47
2022-11-03T07:19:19.844Z,100575.91
2022-11-03T07:21:52.831Z,100572.87
2022-11-03T07:24:30.125Z,100582.87
2022-11-03T07:27:08.173Z,100581.97
2022-11-03T07:29:35.833Z,100582.66
2022-11-03T07:32:09.047Z,100589.25
2022-11-03T07:34:36.657Z,100591.16
2022-11-03T07:37:04.130Z,100578.34
2022-11-03T07:39:34.721Z,100584.41
2022-11-03T07:42:13.903Z,100584.00
2022-11-03T07:44:41.272Z,100586.19
2022-11-03T07:47:18.968Z,100582.63
2022-11-03T07:49:46.399Z,100575.59
2022-11-03T07:52:19.863Z,100578.38
2022-11-03T07:54:47.191Z,100579.34
2022-11-03T07:57:30.632Z,100580.91
2022-11-03T08:00:10.217Z,100584.88
2022-11-03T08:02:43.958Z,100580.38
2022-11-03T08:05:11.652Z,100569.34
2022-11-03T08:07:39.043Z,100566.22
2022-11-03T08:10:07.381Z,100560.22
2022-11-03T08:12:34.986Z,100559.44
2022-11-03T08:15:02.301Z,100568.59
2022-11-03T08:17:30.425Z,100566.34
2022-11-03T08:19:58.078Z,100571.66
2022-11-03T08:22:26.069Z,100574.72
2022-11-03T08:24:53.415Z,100571.56
2022-11-03T08:27:21.058Z,100576.19
2022-11-03T08:29:48.516Z,100563.22
2022-11-03T08:32:15.840Z,100567.22
2022-11-03T08:34:43.429Z,100568.38
2022-11-03T08:37:10.757Z,100572.22
2022-11-03T08:39:38.066Z,100578.38
2022-11-03T08:42:05.685Z,100570.41
2022-11-03T08:44:33.054Z,100559.81
2022-11-03T08:47:00.438Z,100551.94
2022-11-03T08:49:28.047Z,100544.84
2022-11-03T08:51:55.353Z,100556.34
2022-11-03T08:54:22.731Z,100548.59
2022-11-03T08:56:50.307Z,100545.22
2022-11-03T08:59:18.227Z,100549.13
2022-11-03T09:01:45.652Z,100543.41
2022-11-03T09:04:13.344Z,100552.50
2022-11-03T09:06:41.295Z,100550.69
2022-11-03T09:11:56.206Z,100544.03
2022-11-03T09:14:23.571Z,100537.03
2022-11-03T09:16:50.967Z,100539.69
2022-11-03T09:19:18.614Z,100542.09
2022-11-03T09:21:45.976Z,100528.50
2022-11-03T09:24:13.442Z,100533.97
2022-11-03T09:26:41.039Z,100541.94
2022-11-03T09:29:08.415Z,100535.69
2022-11-03T09:31:35.736Z,100534.28
2022-11-03T09:34:03.364Z,100526.62
2022-11-03T09:36:30.701Z,100535.94
2022-11-03T09:38:58.341Z,100533.69
2022-11-03T09:41:36.260Z,100521.44
2022-11-03T09:44:13.456Z,100521.34
2022-11-03T09:46:41.121Z,100518.22
2022-11-03T09:49:08.443Z,100509.31
2022-11-03T09:51:36.248Z,100512.41
2022-11-03T09:54:04.697Z,100514.50
2022-11-03T09:56:32.369Z,100510.31
2022-11-03T09:59:00.712Z,100497.81
2022-11-03T10:01:28.482Z,100499.56
2022-11-03T10:04:00.511Z,100493.63
2022-11-03T10:06:27.834Z,100493.88
2022-11-03T10:08:55.221Z,100490.22
2022-11-03T10:11:22.867Z,100480.16
2022-11-03T10:13:52.955Z,100479.62
2022-11-03T10:16:21.368Z,100475.50
2022-11-03T10:18:49.004Z,100459.66
2022-11-03T10:21:27.517Z,100466.25
2022-11-03T10:23:55.228Z,100459.81
2022-11-03T10:26:22.728Z,100466.25
2022-11-03T10:29:00.212Z,100451.06
2022-11-03T10:31:38.611Z,100448.88
2022-11-03T10:34:37.536Z,100457.50
2022-11-03T10:37:24.392Z,100452.75
2022-11-03T10:39:55.869Z,100448.09
2022-11-03T10:42:25.822Z,100446.81
2022-11-03T10:45:09.373Z,100436.13
2022-11-03T10:47:37.045Z,100433.09
2022-11-03T10:50:26.943Z,100425.97
2022-11-03T10:52:54.691Z,100431.19
2022-11-03T10:55:25.225Z,100432.22
2022-11-03T10:57:55.452Z,100416.91
2022-11-03T11:00:24.194Z,100428.69
2022-11-03T11:02:56.758Z,100431.56
2022-11-03T11:05:24.444Z,100419.91
2022-11-03T11:07:52.688Z,100408.41
2022-11-03T11:10:24.470Z,100398.53
2022-11-03T11:13:25.804Z,100395.09
2022-11-03T11:16:02.371Z,100395.72
2022-11-03T11:18:30.100Z,100392.63
2022-11-03T11:21:21.078Z,100392.00
2022-11-03T11:23:49.163Z,100391.22
2022-11-03T11:26:20.271Z,100383.84
2022-11-03T11:29:10.339Z,100384.03
2022-11-03T11:31:44.625Z,100378.47
2022-11-03T11:34:21.470Z,100366.25
2022-11-03T11:36:55.146Z,100369.34
2022-11-03T11:39:28.245Z,100363.56
2022-11-03T11:42:08.140Z,100357.78
2022-11-03T11:44:52.859Z,100345.06
2022-11-03T11:47:27.520Z,100349.34
2022-11-03T11:50:13.363Z,100349.91
2022-11-03T11:52:58.140Z,100338.09
2022-11-03T11:55:27.015Z,100345.19
2022-11-03T11:57:54.892Z,100341.19
2022-11-03T12:00:26.106Z,100327.09
2022-11-03T12:02:53.884Z,100333.03
2022-11-03T12:05:34.136Z,100319.81
2022-11-03T12:08:01.759Z,100329.63
2022-11-03T12:10:31.184Z,100324.87
2022-11-03T12:12:59.614Z,100308.50
2022-11-03T12:15:51.180Z,100309.66
2022-11-03T12:18:41.686Z,100305.13
2022-11-03T12:21:14.586Z,100307.19
2022-11-03T12:23:46.046Z,100301.56
2022-11-03T12:26:29.365Z,100296.69
2022-11-03T12:28:56.725Z,100292.53
2022-11-03T12:31:24.412Z,100274.16
2022-11-03T12:33:51.764Z,100280.63
2022-11-03T12:36:19.135Z,100286.50
2022-11-03T12:38:46.776Z,100286.81
2022-11-03T12:41:24.664Z,100269.09
2022-11-03T12:43:53.328Z,100264.09
2022-11-03T12:46:21.362Z,100274.31
2022-11-03T12:48:49.095Z,100266.94
2022-11-03T12:51:20.755Z,100274.72
2022-11-03T12:53:48.144Z,100264.59
2022-11-03T12:56:15.903Z,100266.47
2022-11-03T12:58:43.528Z,100264.09
2022-11-03T13:01:11.123Z,100269.03
2022-11-03T13:03:38.755Z,100261.53
2022-11-03T13:06:10.004Z,100260.72
2022-11-03T13:08:37.693Z,100254.88
2022-11-03T13:11:25.003Z,100258.44
2022-11-03T13:13:53.030Z,100246.59
2022-11-03T13:16:20.473Z,100254.41
2022-11-03T13:18:47.926Z,100250.31
2022-11-03T13:21:15.638Z,100230.22
2022-11-03T13:23:43.064Z,100240.22
2022-11-03T13:26:10.916Z,100230.16
2022-11-03T13:28:38.608Z,100233.69
2022-11-03T13:31:06.283Z,100230.81
2022-11-03T13:33:33.645Z,100219.38
2022-11-03T13:36:01.592Z,100224.38
2022-11-03T13:38:29.393Z,100223.81
2022-11-03T13:41:01.121Z,100222.44
2022-11-03T13:43:33.157Z,100223.94
2022-11-03T13:46:02.592Z,100221.50
2022-11-03T13:51:19.028Z,100219.53
2022-11-03T13:59:28.357Z,100230.75
2022-11-03T14:04:44.906Z,100223.84
2022-11-03T14:07:12.523Z,100207.19
2022-11-03T14:09:39.924Z,100217.34
2022-11-03T14:12:26.178Z,100208.66
2022-11-03T14:14:53.553Z,100203.25
2022-11-03T14:17:21.135Z,100203.59
2022-11-03T14:19:52.480Z,100208.06
2022-11-03T14:22:21.225Z,100206.78
2022-11-03T14:24:48.724Z,100205.69
2022-11-03T14:27:16.341Z,100207.09
2022-11-03T14:29:44.214Z,100193.84
2022-11-03T14:32:11.933Z,100208.88
2022-11-03T14:34:39.410Z,100201.56
2022-11-03T14:37:08.873Z,100202.00
2022-11-03T14:39:39.537Z,100204.66
2022-11-03T14:42:11.715Z,100197.34
2022-11-03T14:44:39.405Z,100196.97
2022-11-03T14:47:12.700Z,100199.13
2022-11-03T14:49:40.173Z,100190.13
2022-11-03T14:52:07.864Z,100194.25
2022-11-03T14:54:36.043Z,100190.72
2022-11-03T14:57:03.974Z,100190.59
2022-11-03T14:59:31.758Z,100191.78
2022-11-03T15:01:59.365Z,100191.50
2022-11-03T15:04:26.899Z,100182.69
2022-11-03T15:06:54.555Z,100190.50
2022-11-03T15:09:22.000Z,100173.06
2022-11-03T15:11:49.390Z,100170.81
2022-11-03T15:14:17.042Z,100165.84
2022-11-03T15:16:46.141Z,100164.62
2022-11-03T15:19:13.769Z,100171.34
2022-11-03T15:21:41.524Z,100164.41
2022-11-03T15:26:56.536Z,100156.56
2022-11-03T15:29:24.177Z,100150.28
2022-11-03T15:31:51.782Z,100149.66
2022-11-03T15:34:19.387Z,100151.59
2022-11-03T15:36:46.775Z,100164.00
2022-11-03T15:39:14.118Z,100160.13
2022-11-03T15:41:41.763Z,100162.03
2022-11-03T15:44:10.029Z,100155.06
2022-11-03T15:46:37.352Z,100159.09
2022-11-03T15:49:04.984Z,100160.41
2022-11-03T15:51:32.308Z,100155.78
2022-11-03T15:53:59.667Z,100167.59
2022-11-03T15:56:27.478Z,100156.53
2022-11-03T15:58:54.933Z,100155.72
2022-11-03T16:01:22.517Z,100152.75
2022-11-03T16:03:50.275Z,100148.78
2022-11-03T16:06:17.616Z,100141.41
2022-11-03T16:08:45.134Z,100147.78
2022-11-03T16:11:12.792Z,100150.78
2022-11-03T16:13:40.100Z,100142.81
2022-11-03T16:16:07.550Z,100146.44
2022-11-03T16:18:35.155Z,100150.69
2022-11-03T16:21:02.477Z,100148.28
2022-11-03T16:23:29.830Z,100141.13
2022-11-03T16:25:57.491Z,100129.81
2022-11-03T16:28:24.884Z,100127.00
2022-11-03T16:30:54.520Z,100117.44
2022-11-03T16:33:22.726Z,100121.78
2022-11-03T16:35:50.083Z,100126.03
2022-11-03T16:38:17.449Z,100121.44
2022-11-03T16:40:45.024Z,100121.28
2022-11-03T16:43:12.404Z,100121.44
2022-11-03T16:45:39.753Z,100128.63
2022-11-03T16:48:07.829Z,100126.62
2022-11-03T16:50:35.340Z,100122.66
2022-11-03T16:53:03.333Z,100130.12
2022-11-03T16:55:30.937Z,100124.31
2022-11-03T16:57:58.276Z,100122.97
2022-11-03T17:00:26.160Z,100118.84
2022-11-03T17:02:53.743Z,100129.09
2022-11-03T17:05:21.870Z,100123.56
2022-11-03T17:07:53.555Z,100121.91
2022-11-03T17:10:22.526Z,100126.25
2022-11-03T17:12:50.351Z,100126.59
2022-11-03T17:15:17.678Z,100132.47
2022-11-03T17:17:45.267Z,100127.41
2022-11-03T17:20:12.808Z,100128.28
2022-11-03T17:22:40.146Z,100133.06
2022-11-03T17:25:09.487Z,100124.59
2022-11-03T17:27:36.689Z,100124.09
2022-11-03T17:30:06.007Z,100118.53
2022-11-03T17:32:36.527Z,100110.12
2022-11-03T17:35:04.810Z,100099.56
2022-11-03T17:37:32.227Z,100101.44
2022-11-03T17:39:59.988Z,100099.16
2022-11-03T17:42:28.425Z,100093.50
2022-11-03T17:44:56.621Z,100089.69
2022-11-03T17:47:24.351Z,100091.28
2022-11-03T17:49:51.717Z,100092.84
2022-11-03T17:52:26.767Z,100074.50
2022-11-03T17:54:57.060Z,100075.50
2022-11-03T17:57:24.535Z,100079.47
2022-11-03T17:59:53.828Z,100064.34
2022-11-03T18:02:26.602Z,100062.81
2022-11-03T18:05:24.328Z,100059.91
2022-11-03T18:07:52.496Z,100049.09
2022-11-03T18:10:30.381Z,100060.22
2022-11-03T18:13:18.834Z,100042.34
2022-11-03T18:15:54.135Z,100039.09
2022-11-03T18:18:26.054Z,100023.69
2022-11-03T18:20:53.960Z,100027.09
2022-11-03T18:23:26.119Z,100017.09
2022-11-03T18:25:53.834Z,100017.22
2022-11-03T18:28:21.320Z,100018.34
2022-11-03T18:30:49.672Z,100010.19
2022-11-03T18:33:24.732Z,100012.56
2022-11-03T18:35:53.188Z,100008.16
2022-11-03T18:38:24.065Z,100004.47
2022-11-03T18:40:51.440Z,99992.69
2022-11-03T18:43:20.165Z,99995.06
2022-11-03T18:45:47.855Z,99983.66
2022-11-03T18:48:19.460Z,99987.16
2022-11-03T18:50:53.206Z,99979.81
2022-11-03T18:53:24.487Z,99980.38
2022-11-03T18:55:52.040Z,99991.19
2022-11-03T18:58:24.488Z,99978.84
2022-11-03T19:00:55.497Z,99969.00
2022-11-03T19:03:23.239Z,99961.06
2022-11-03T19:05:51.641Z,99976.16
2022-11-03T19:08:21.426Z,99971.00
2022-11-03T19:10:48.878Z,99969.16
2022-11-03T19:13:28.543Z,99963.66
2022-11-03T19:15:56.853Z,99960.72
2022-11-03T19:18:24.888Z,99944.19
2022-11-03T19:20:52.208Z,99935.38
2022-11-03T19:23:19.800Z,99941.47
2022-11-03T19:25:47.157Z,99927.31
2022-11-03T19:28:14.786Z,99933.25
2022-11-03T19:30:42.452Z,99921.25
2022-11-03T19:33:16.806Z,99919.44
2022-11-03T19:35:44.398Z,99927.66
2022-11-03T19:38:13.756Z,99922.69
2022-11-03T19:41:01.122Z,99913.94
2022-11-03T19:43:34.224Z,99914.16
2022-11-03T19:46:02.184Z,99900.88
2022-11-03T19:48:31.980Z,99903.72
2022-11-03T19:50:59.580Z,99905.94
2022-11-03T19:53:28.059Z,99907.78
2022-11-03T19:55:55.825Z,99904.00
2022-11-03T19:58:24.765Z,99902.00
2022-11-03T20:00:53.314Z,99897.94
2022-11-03T20:03:22.170Z,99896.22
2022-11-03T20:05:51.963Z,99895.41
2022-11-03T20:08:22.195Z,99893.69
2022-11-03T20:10:49.945Z,99887.19
2022-11-03T20:13:19.251Z,99886.31
2022-11-03T20:15:46.838Z,99883.56
2022-11-03T20:18:14.640Z,99868.81
2022-11-03T20:20:42.866Z,99878.06
2022-11-03T20:23:22.169Z,99859.22
2022-11-03T20:25:49.771Z,99860.16
2022-11-03T20:28:22.024Z,99859.25
2022-11-03T20:30:49.775Z,99856.03
2022-11-03T20:33:18.246Z,99852.47
2022-11-03T20:35:45.771Z,99849.84
2022-11-03T20:38:14.363Z,99840.81
2022-11-03T20:40:41.750Z,99847.34
2022-11-03T20:43:26.900Z,99851.22
2022-11-03T20:45:54.892Z,99848.22
2022-11-03T20:48:22.537Z,99837.88
2022-11-03T20:50:50.180Z,99833.50
2022-11-03T20:53:19.077Z,99832.16
2022-11-03T20:55:46.544Z,99833.63
2022-11-03T20:58:16.019Z,99838.44
2022-11-03T21:00:44.321Z,99830.44
2022-11-03T21:03:38.014Z,99834.31
2022-11-03T21:06:10.958Z,99831.94
2022-11-03T21:08:38.376Z,99835.78
2022-11-03T21:11:28.492Z,99833.63
2022-11-03T21:13:57.095Z,99835.75
2022-11-03T21:16:43.367Z,99829.59
2022-11-03T21:19:49.934Z,99838.09
2022-11-03T21:22:46.185Z,99834.69
2022-11-03T21:25:13.828Z,99826.47
2022-11-03T21:27:42.139Z,99827.31
2022-11-03T21:30:14.056Z,99813.81
2022-11-03T21:32:41.609Z,99808.19
2022-11-03T21:35:14.547Z,99814.88
2022-11-03T21:37:42.145Z,99816.41
2022-11-03T21:40:10.292Z,99805.13
2022-11-03T21:42:56.214Z,99796.97
2022-11-03T21:45:23.831Z,99796.28
2022-11-03T21:48:13.605Z,99798.81
2022-11-03T21:50:42.441Z,99801.69
2022-11-03T21:53:10.319Z,99796.22
2022-11-03T21:55:38.028Z,99792.94
2022-11-03T21:58:05.649Z,99783.75
2022-11-03T22:00:32.967Z,99777.81
2022-11-03T22:03:00.850Z,99765.94
2022-11-03T22:05:28.183Z,99758.88
2022-11-03T22:07:55.517Z,99750.75
2022-11-03T22:10:23.172Z,99739.34
2022-11-03T22:12:50.506Z,99736.69
2022-11-03T22:15:36.720Z,99738.53
2022-11-03T22:18:05.633Z,99739.53
2022-11-03T22:20:52.119Z,99729.41
2022-11-03T22:23:37.978Z,99726.72
2022-11-03T22:26:23.766Z,99727.37
2022-11-03T22:29:11.307Z,99712.22
2022-11-03T22:31:41.420Z,99718.31
2022-11-03T22:34:27.667Z,99723.72
2022-11-03T22:36:55.008Z,99718.03
2022-11-03T22:39:41.575Z,99709.25
2022-11-03T22:42:31.648Z,99702.91
2022-11-03T22:45:18.165Z,99716.66
2022-11-03T22:47:45.466Z,99705.31
2022-11-03T22:50:13.061Z,99705.91
2022-11-03T22:52:40.431Z,99690.81
2022-11-03T22:55:07.743Z,99697.63
2022-11-03T22:57:35.322Z,99703.25
2022-11-03T23:00:05.517Z,99691.28
2022-11-03T23:02:32.925Z,99685.75
2022-11-03T23:05:00.543Z,99690.47
2022-11-03T23:07:32.324Z,99686.06
2022-11-03T23:10:04.656Z,99685.94
2022-11-03T23:12:32.315Z,99685.38
2022-11-03T23:15:18.612Z,99678.91
2022-11-03T23:18:04.986Z,99680.09
2022-11-03T23:20:50.812Z,99683.69
2022-11-03T23:23:37.267Z,99670.53
2022-11-03T23:26:04.597Z,99665.91
2022-11-03T23:28:32.161Z,99662.31
2022-11-03T23:30:59.496Z,99666.97
2022-11-03T23:33:26.836Z,99654.62
2022-11-03T23:35:54.418Z,99654.44
2022-11-03T23:38:21.790Z,99653.16
2022-11-03T23:40:49.092Z,99646.97
2022-11-03T23:43:16.662Z,99640.69
2022-11-03T23:46:02.731Z,99625.44
2022-11-03T23:48:48.224Z,99625.63
2022-11-03T23:51:19.672Z,99620.31
2022-11-03T23:53:47.258Z,99632.41
2022-11-03T23:56:33.936Z,99622.13
2022-11-03T23:59:01.596Z,99628.28
